Time;durP1;ratioP1;P1;durP2;ratioP2;P2;SDS_P1;SDS_P2;PMS_P1;PMS_P2;Temp;Humidity;BMP_temperature;BMP_pressure;BME280_temperature;BME280_humidity;BME280_pressure;Samples;Min_cycle;Max_cycle;Signal;HPM_P1;HPM_P2
2023/10/06 00:00:33;;;;;;;19.40;12.13;;;;;;;;;;5035897;28;20420;-81
2023/10/06 00:02:59;;;;;;;16.60;12.13;;;;;;;;;;5034353;28;20495;-82
2023/10/06 00:05:29;;;;;;;15.77;11.67;;;;;;;;;;5034946;28;20423;-82
2023/10/06 00:07:56;;;;;;;19.63;11.57;;;;;;;;;;5034692;28;20499;-82
2023/10/06 00:10:26;;;;;;;20.37;12.50;;;;;;;;;;5035461;28;20436;-82
2023/10/06 00:12:58;;;;;;;18.87;11.57;;;;;;;;;;5034880;28;20560;-83
2023/10/06 00:15:34;;;;;;;14.87;11.53;;;;;;;;;;5036231;28;20456;-83
2023/10/06 00:18:07;;;;;;;15.47;10.70;;;;;;;;;;5034637;28;20447;-80
2023/10/06 00:20:42;;;;;;;17.90;10.97;;;;;;;;;;5034765;28;20445;-83
2023/10/06 00:23:13;;;;;;;13.60;11.60;;;;;;;;;;5033228;28;21021;-83
2023/10/06 00:25:42;;;;;;;17.40;11.30;;;;;;;;;;5036182;28;20499;-84
2023/10/06 00:28:16;;;;;;;15.53;11.80;;;;;;;;;;5037498;28;20452;-86
2023/10/06 00:30:46;;;;;;;18.73;11.77;;;;;;;;;;5040137;28;20433;-87
2023/10/06 00:33:12;;;;;;;17.23;11.00;;;;;;;;;;5038786;28;20443;-85
2023/10/06 00:35:40;;;;;;;24.93;12.77;;;;;;;;;;5038360;28;20433;-82
2023/10/06 00:38:12;;;;;;;27.67;12.27;;;;;;;;;;5036720;28;20465;-85
2023/10/06 00:40:39;;;;;;;14.73;11.27;;;;;;;;;;5037306;28;20415;-85
2023/10/06 00:43:08;;;;;;;17.47;11.80;;;;;;;;;;5037896;28;20473;-81
2023/10/06 00:45:39;;;;;;;18.73;12.00;;;;;;;;;;5035068;28;20510;-83
2023/10/06 00:48:14;;;;;;;17.23;11.60;;;;;;;;;;5037838;28;20439;-85
2023/10/06 00:50:42;;;;;;;16.10;10.47;;;;;;;;;;5036340;28;20424;-81
2023/10/06 00:53:10;;;;;;;22.83;12.60;;;;;;;;;;5036146;28;20978;-83
2023/10/06 00:55:37;;;;;;;20.03;12.30;;;;;;;;;;5035919;28;20457;-83
2023/10/06 00:58:05;;;;;;;19.57;11.67;;;;;;;;;;5036472;28;20443;-86
2023/10/06 01:00:37;;;;;;;14.53;11.40;;;;;;;;;;5036167;28;20859;-83
2023/10/06 01:03:09;;;;;;;17.43;10.60;;;;;;;;;;5017505;28;20477;-84
2023/10/06 01:05:36;;;;;;;14.83;10.23;;;;;;;;;;5035897;28;20516;-86
2023/10/06 01:08:05;;;;;;;17.67;10.83;;;;;;;;;;5035954;28;20476;-85
2023/10/06 01:10:34;;;;;;;18.53;10.40;;;;;;;;;;5035714;28;20411;-83
2023/10/06 01:13:11;;;;;;;18.40;11.50;;;;;;;;;;5035251;28;20522;-83
2023/10/06 01:15:39;;;;;;;20.57;11.37;;;;;;;;;;5036332;28;20426;-84
2023/10/06 01:18:07;;;;;;;17.33;10.60;;;;;;;;;;5035553;28;20546;-82
2023/10/06 01:20:40;;;;;;;18.23;10.70;;;;;;;;;;5017892;28;20502;-81
2023/10/06 01:23:17;;;;;;;15.93;11.20;;;;;;;;;;5017892;28;20483;-83
2023/10/06 01:25:44;;;;;;;13.70;11.20;;;;;;;;;;5035451;28;20491;-85
2023/10/06 01:28:12;;;;;;;22.07;10.73;;;;;;;;;;5034853;28;20447;-81
2023/10/06 01:30:38;;;;;;;16.03;11.23;;;;;;;;;;5033552;28;20499;-83
2023/10/06 01:33:05;;;;;;;14.03;10.37;;;;;;;;;;5034807;28;20469;-81
2023/10/06 01:35:36;;;;;;;21.47;11.00;;;;;;;;;;5035090;28;20416;-82
2023/10/06 01:38:05;;;;;;;19.03;10.40;;;;;;;;;;5032808;28;20899;-81
2023/10/06 01:40:43;;;;;;;15.70;10.70;;;;;;;;;;5034460;28;20479;-83
2023/10/06 01:43:12;;;;;;;20.77;11.40;;;;;;;;;;5033384;28;20459;-83
2023/10/06 01:45:43;;;;;;;17.50;10.73;;;;;;;;;;5032843;28;20474;-82
2023/10/06 01:48:22;;;;;;;18.23;11.53;;;;;;;;;;5034038;28;21022;-80
2023/10/06 01:50:49;;;;;;;19.90;12.27;;;;;;;;;;5033755;28;20459;-81
2023/10/06 01:53:18;;;;;;;27.57;11.17;;;;;;;;;;5034147;28;20527;-81
2023/10/06 01:55:49;;;;;;;19.87;12.10;;;;;;;;;;5016985;28;20502;-81
2023/10/06 01:58:15;;;;;;;19.10;11.27;;;;;;;;;;5033181;28;20477;-82
2023/10/06 02:00:44;;;;;;;23.13;13.40;;;;;;;;;;5032385;28;20441;-81
2023/10/06 02:03:11;;;;;;;17.20;11.67;;;;;;;;;;5016038;28;20882;-81
2023/10/06 02:05:38;;;;;;;13.90;10.70;;;;;;;;;;5033479;28;20411;-82
2023/10/06 02:08:05;;;;;;;18.93;11.50;;;;;;;;;;5015415;28;20815;-82
2023/10/06 02:10:32;;;;;;;24.97;12.50;;;;;;;;;;5032345;28;20419;-82
2023/10/06 02:13:00;;;;;;;16.30;12.33;;;;;;;;;;5033289;28;20472;-83
2023/10/06 02:15:26;;;;;;;26.10;13.10;;;;;;;;;;5036018;28;20432;-83
2023/10/06 02:17:52;;;;;;;22.07;13.10;;;;;;;;;;5035964;28;20455;-83
2023/10/06 02:20:30;;;;;;;19.87;14.30;;;;;;;;;;5038219;28;20422;-82
2023/10/06 02:22:57;;;;;;;27.67;15.00;;;;;;;;;;5036973;28;21027;-85
2023/10/06 02:25:25;;;;;;;21.77;13.63;;;;;;;;;;5037604;28;20985;-82
2023/10/06 02:27:52;;;;;;;24.30;14.27;;;;;;;;;;5038891;28;20480;-83
2023/10/06 02:30:25;;;;;;;20.23;14.40;;;;;;;;;;5038932;28;20420;-86
2023/10/06 02:32:52;;;;;;;21.23;14.57;;;;;;;;;;5037479;28;20472;-82
2023/10/06 02:35:20;;;;;;;20.27;15.20;;;;;;;;;;5038546;28;20497;-83
2023/10/06 02:37:46;;;;;;;26.03;14.83;;;;;;;;;;5036790;28;20454;-83
2023/10/06 02:40:13;;;;;;;27.53;17.37;;;;;;;;;;5037723;28;20441;-83
2023/10/06 02:42:43;;;;;;;25.00;18.07;;;;;;;;;;5036909;28;20451;-83
2023/10/06 02:45:16;;;;;;;26.20;16.20;;;;;;;;;;5037378;28;20497;-83
2023/10/06 02:47:44;;;;;;;33.17;15.60;;;;;;;;;;5035039;28;20471;-83
2023/10/06 02:50:17;;;;;;;28.17;17.17;;;;;;;;;;5038976;28;20416;-84
2023/10/06 02:52:45;;;;;;;26.70;16.83;;;;;;;;;;5036321;28;20636;-81
2023/10/06 02:55:12;;;;;;;24.63;17.50;;;;;;;;;;5036464;28;20461;-83
2023/10/06 02:57:38;;;;;;;23.07;17.07;;;;;;;;;;5035617;28;20469;-81
2023/10/06 03:00:32;;;;;;;29.03;17.47;;;;;;;;;;5036317;28;20415;-83
2023/10/06 03:05:49;;;;;;;26.60;18.43;;;;;;;;;;5038280;28;20896;-88
2023/10/06 03:08:20;;;;;;;25.53;16.20;;;;;;;;;;5042232;28;20506;-81
2023/10/06 03:10:48;;;;;;;24.20;17.90;;;;;;;;;;5037169;28;20461;-81
2023/10/06 03:13:16;;;;;;;28.93;16.00;;;;;;;;;;5036093;28;20476;-84
2023/10/06 03:15:45;;;;;;;26.67;17.40;;;;;;;;;;5035208;28;20419;-81
2023/10/06 03:18:14;;;;;;;28.90;16.40;;;;;;;;;;5036139;28;20443;-83
2023/10/06 03:20:46;;;;;;;25.77;16.47;;;;;;;;;;5034731;28;20884;-83
2023/10/06 03:23:24;;;;;;;26.37;16.30;;;;;;;;;;5035536;28;20459;-81
2023/10/06 03:25:53;;;;;;;27.33;17.20;;;;;;;;;;5035050;28;20433;-83
2023/10/06 03:28:20;;;;;;;24.20;15.40;;;;;;;;;;5035629;28;20476;-83
2023/10/06 03:30:49;;;;;;;21.93;14.80;;;;;;;;;;5035729;28;20455;-83
2023/10/06 03:33:19;;;;;;;22.80;14.90;;;;;;;;;;5034976;28;20447;-83
2023/10/06 03:35:47;;;;;;;26.63;14.13;;;;;;;;;;5034626;28;20541;-83
2023/10/06 03:41:25;;;;;;;23.80;16.10;;;;;;;;;;5111987;27;21149;-82
2023/10/06 03:43:53;;;;;;;20.10;14.50;;;;;;;;;;5092604;27;20509;-81
2023/10/06 03:46:20;;;;;;;20.43;13.83;;;;;;;;;;5091840;28;20465;-81
2023/10/06 03:48:48;;;;;;;21.40;14.07;;;;;;;;;;5091178;28;21022;-82
2023/10/06 03:51:15;;;;;;;18.20;13.63;;;;;;;;;;5091607;28;20436;-82
2023/10/06 03:53:42;;;;;;;18.90;12.83;;;;;;;;;;5091126;28;20449;-82
2023/10/06 03:56:12;;;;;;;23.87;13.20;;;;;;;;;;5090445;28;20442;-82
2023/10/06 03:58:38;;;;;;;23.17;13.00;;;;;;;;;;5091410;28;20452;-82
2023/10/06 04:01:09;;;;;;;17.63;11.50;;;;;;;;;;5090901;28;20488;-82
2023/10/06 04:03:36;;;;;;;23.20;13.23;;;;;;;;;;5091018;28;20834;-82
2023/10/06 04:06:03;;;;;;;17.27;12.90;;;;;;;;;;5090761;28;20482;-82
2023/10/06 04:08:30;;;;;;;17.97;12.30;;;;;;;;;;5090916;28;20443;-82
2023/10/06 04:10:58;;;;;;;20.13;11.20;;;;;;;;;;5089856;28;20474;-82
2023/10/06 04:13:26;;;;;;;22.30;11.93;;;;;;;;;;5090299;28;20478;-82
2023/10/06 04:15:53;;;;;;;23.87;13.87;;;;;;;;;;5089722;28;20542;-82
2023/10/06 04:18:22;;;;;;;14.07;10.73;;;;;;;;;;5090716;28;20906;-82
2023/10/06 04:20:48;;;;;;;20.73;10.80;;;;;;;;;;5091946;28;20505;-82
2023/10/06 04:23:17;;;;;;;21.13;11.07;;;;;;;;;;5091675;28;20433;-85
2023/10/06 04:25:43;;;;;;;14.10;10.23;;;;;;;;;;5092581;28;20451;-82
2023/10/06 04:28:11;;;;;;;18.33;11.40;;;;;;;;;;5091461;28;20857;-82
2023/10/06 04:30:41;;;;;;;15.50;10.80;;;;;;;;;;5091675;28;20443;-83
2023/10/06 04:33:10;;;;;;;15.50;11.20;;;;;;;;;;5091604;28;20878;-82
2023/10/06 04:35:39;;;;;;;22.93;12.00;;;;;;;;;;5091190;28;20429;-80
2023/10/06 04:38:06;;;;;;;15.30;10.60;;;;;;;;;;5090317;28;20468;-82
2023/10/06 04:40:32;;;;;;;26.83;12.23;;;;;;;;;;5091137;28;20460;-84
2023/10/06 04:42:59;;;;;;;17.47;10.47;;;;;;;;;;5091425;28;20470;-84
2023/10/06 04:45:26;;;;;;;16.33;10.77;;;;;;;;;;5091334;28;20866;-81
2023/10/06 04:47:55;;;;;;;12.77;10.00;;;;;;;;;;5090846;28;20447;-82
2023/10/06 04:50:22;;;;;;;17.07;10.13;;;;;;;;;;5089548;28;20417;-84
2023/10/06 04:52:48;;;;;;;18.60;10.90;;;;;;;;;;5075821;28;21056;-82
2023/10/06 04:55:15;;;;;;;15.67;10.20;;;;;;;;;;5077605;28;20989;-83
2023/10/06 04:57:42;;;;;;;16.73;10.50;;;;;;;;;;5075551;28;20474;-84
2023/10/06 05:00:15;;;;;;;18.30;10.97;;;;;;;;;;5077167;28;20460;-83
2023/10/06 05:02:43;;;;;;;17.00;10.30;;;;;;;;;;5076007;28;20995;-83
2023/10/06 05:05:12;;;;;;;18.43;11.63;;;;;;;;;;5075759;28;20467;-82
2023/10/06 05:07:41;;;;;;;12.90;9.50;;;;;;;;;;5076487;28;20445;-82
2023/10/06 05:10:10;;;;;;;15.30;10.73;;;;;;;;;;5076892;28;20418;-82
2023/10/06 05:12:37;;;;;;;16.23;10.47;;;;;;;;;;5076559;28;20520;-82
2023/10/06 05:15:07;;;;;;;14.47;10.57;;;;;;;;;;5076460;28;20438;-82
2023/10/06 05:17:34;;;;;;;15.00;10.00;;;;;;;;;;5076862;28;20553;-82
2023/10/06 05:20:00;;;;;;;13.03;9.60;;;;;;;;;;5076153;28;20483;-85
2023/10/06 05:22:28;;;;;;;18.47;11.60;;;;;;;;;;5075609;28;20466;-83
2023/10/06 05:24:54;;;;;;;16.50;9.80;;;;;;;;;;5077174;28;20448;-84
2023/10/06 05:27:22;;;;;;;16.53;9.90;;;;;;;;;;5076714;28;20464;-83
2023/10/06 05:29:50;;;;;;;15.27;9.53;;;;;;;;;;5074981;28;20425;-84
2023/10/06 05:32:16;;;;;;;18.17;9.07;;;;;;;;;;5053029;28;20475;-84
2023/10/06 05:34:43;;;;;;;17.20;10.47;;;;;;;;;;5056502;28;20467;-83
2023/10/06 05:37:10;;;;;;;13.70;8.97;;;;;;;;;;5056400;28;20463;-84
2023/10/06 05:39:40;;;;;;;20.80;10.73;;;;;;;;;;5056153;28;20454;-82
2023/10/06 05:42:08;;;;;;;14.13;9.87;;;;;;;;;;5056272;28;20472;-82
2023/10/06 05:44:36;;;;;;;12.90;9.30;;;;;;;;;;5038671;28;20470;-84
2023/10/06 05:47:02;;;;;;;18.00;9.50;;;;;;;;;;5055655;28;20483;-82
2023/10/06 05:49:32;;;;;;;15.00;9.23;;;;;;;;;;5054668;28;20452;-82
2023/10/06 05:51:58;;;;;;;14.83;8.93;;;;;;;;;;5056570;28;20942;-81
2023/10/06 05:54:26;;;;;;;17.00;9.87;;;;;;;;;;5054619;28;20464;-82
2023/10/06 05:56:54;;;;;;;17.00;9.43;;;;;;;;;;5054261;28;20759;-82
2023/10/06 05:59:22;;;;;;;13.97;8.67;;;;;;;;;;5055909;28;20410;-82
2023/10/06 06:01:56;;;;;;;15.93;9.50;;;;;;;;;;5037296;28;20422;-82
2023/10/06 06:04:27;;;;;;;26.07;12.33;;;;;;;;;;5053628;28;20880;-81
2023/10/06 06:06:56;;;;;;;16.63;8.90;;;;;;;;;;5054810;28;20403;-82
2023/10/06 06:09:22;;;;;;;11.63;7.63;;;;;;;;;;5055133;28;20448;-82
2023/10/06 06:11:49;;;;;;;17.10;9.10;;;;;;;;;;5054213;28;20565;-83
2023/10/06 06:14:20;;;;;;;13.50;8.83;;;;;;;;;;5055612;28;20445;-82
2023/10/06 06:16:46;;;;;;;14.20;8.80;;;;;;;;;;5055083;28;20818;-84
2023/10/06 06:19:13;;;;;;;15.13;9.50;;;;;;;;;;5037643;28;20422;-83
2023/10/06 06:21:39;;;;;;;17.67;8.33;;;;;;;;;;5053798;28;20533;-83
2023/10/06 06:24:07;;;;;;;14.43;8.10;;;;;;;;;;5054796;28;20485;-82
2023/10/06 06:26:33;;;;;;;14.03;7.90;;;;;;;;;;5055105;28;20448;-81
2023/10/06 06:29:02;;;;;;;16.77;8.60;;;;;;;;;;5054387;28;20513;-82
2023/10/06 06:31:32;;;;;;;9.23;7.17;;;;;;;;;;5054971;28;20444;-82
2023/10/06 06:33:59;;;;;;;19.00;8.63;;;;;;;;;;5054001;28;20473;-82
2023/10/06 06:36:26;;;;;;;13.70;7.10;;;;;;;;;;5054701;28;20422;-82
2023/10/06 06:38:52;;;;;;;16.00;7.30;;;;;;;;;;5054915;28;20467;-83
2023/10/06 06:41:21;;;;;;;14.63;8.80;;;;;;;;;;5054730;28;20510;-83
2023/10/06 06:43:48;;;;;;;11.23;7.97;;;;;;;;;;5054290;28;20492;-85
2023/10/06 06:46:16;;;;;;;14.43;6.87;;;;;;;;;;5057847;28;20479;-84
2023/10/06 06:48:46;;;;;;;10.70;7.80;;;;;;;;;;5056477;28;20446;-84
2023/10/06 06:51:13;;;;;;;9.90;7.47;;;;;;;;;;5058043;28;20425;-82
2023/10/06 06:53:40;;;;;;;9.97;7.37;;;;;;;;;;5057026;28;20450;-84
2023/10/06 06:56:06;;;;;;;16.20;7.60;;;;;;;;;;5056612;28;20446;-86
2023/10/06 06:58:33;;;;;;;13.30;8.53;;;;;;;;;;5055572;28;20438;-85
2023/10/06 07:00:59;;;;;;;16.70;8.00;;;;;;;;;;5055948;28;20504;-84
2023/10/06 07:03:26;;;;;;;11.23;8.03;;;;;;;;;;5057659;28;20804;-88
2023/10/06 07:05:56;;;;;;;11.83;7.07;;;;;;;;;;5056191;28;20579;-82
2023/10/06 07:08:23;;;;;;;11.10;8.27;;;;;;;;;;5055501;28;20450;-83
2023/10/06 07:10:52;;;;;;;10.80;7.27;;;;;;;;;;5054872;28;20875;-83
2023/10/06 07:13:22;;;;;;;17.80;8.77;;;;;;;;;;5055458;28;20534;-87
2023/10/06 07:15:49;;;;;;;11.37;7.10;;;;;;;;;;5055009;28;20483;-85
2023/10/06 07:18:16;;;;;;;12.57;7.73;;;;;;;;;;5055113;28;20521;-85
2023/10/06 07:20:44;;;;;;;10.20;7.97;;;;;;;;;;5055263;28;20990;-84
2023/10/06 07:23:12;;;;;;;13.07;6.67;;;;;;;;;;5054225;28;20475;-84
2023/10/06 07:25:38;;;;;;;10.80;7.00;;;;;;;;;;5055473;28;20419;-82
2023/10/06 07:28:06;;;;;;;19.90;7.93;;;;;;;;;;5054778;28;20525;-84
2023/10/06 07:30:34;;;;;;;13.97;8.13;;;;;;;;;;5055062;28;20444;-85
2023/10/06 07:33:02;;;;;;;10.93;6.60;;;;;;;;;;5054805;28;20529;-83
2023/10/06 07:35:36;;;;;;;8.03;6.20;;;;;;;;;;5054327;28;20472;-84
2023/10/06 07:38:03;;;;;;;15.47;6.30;;;;;;;;;;5055336;28;20434;-84
2023/10/06 07:40:32;;;;;;;17.33;8.33;;;;;;;;;;5055421;28;20454;-85
2023/10/06 07:42:58;;;;;;;21.07;6.73;;;;;;;;;;5054239;28;20468;-82
2023/10/06 07:45:26;;;;;;;13.40;6.33;;;;;;;;;;5053738;28;20459;-84
2023/10/06 07:47:53;;;;;;;11.13;5.67;;;;;;;;;;5052033;28;20986;-82
2023/10/06 07:50:20;;;;;;;8.77;6.50;;;;;;;;;;5053716;28;20542;-82
2023/10/06 07:52:47;;;;;;;13.93;8.00;;;;;;;;;;5054324;28;20980;-84
2023/10/06 07:55:14;;;;;;;13.57;6.77;;;;;;;;;;5054302;28;20472;-84
2023/10/06 07:57:42;;;;;;;10.97;6.07;;;;;;;;;;5053942;28;20446;-83
2023/10/06 08:00:12;;;;;;;8.73;6.67;;;;;;;;;;5054582;28;20414;-82
2023/10/06 08:02:39;;;;;;;12.53;6.07;;;;;;;;;;5053995;28;20555;-82
2023/10/06 08:05:07;;;;;;;10.70;5.80;;;;;;;;;;5052479;28;20895;-84
2023/10/06 08:07:33;;;;;;;16.03;8.27;;;;;;;;;;5053162;28;20460;-84
2023/10/06 08:10:03;;;;;;;8.23;6.63;;;;;;;;;;5053230;28;20463;-84
2023/10/06 08:12:30;;;;;;;12.30;6.90;;;;;;;;;;5053523;28;20471;-84
2023/10/06 08:14:57;;;;;;;12.60;5.87;;;;;;;;;;5053744;28;21032;-83
2023/10/06 08:17:27;;;;;;;14.50;6.10;;;;;;;;;;5053746;28;20442;-84
2023/10/06 08:19:54;;;;;;;13.53;5.70;;;;;;;;;;5054945;28;20444;-84
2023/10/06 08:22:22;;;;;;;9.37;5.70;;;;;;;;;;5052221;28;20468;-82
2023/10/06 08:24:48;;;;;;;14.77;6.50;;;;;;;;;;5054564;28;20463;-83
2023/10/06 08:27:21;;;;;;;19.03;7.40;;;;;;;;;;5056009;28;20814;-82
2023/10/06 08:29:47;;;;;;;13.60;5.97;;;;;;;;;;5056476;28;20456;-82
2023/10/06 08:32:17;;;;;;;14.50;7.37;;;;;;;;;;5056673;28;20474;-82
2023/10/06 08:34:46;;;;;;;10.73;6.00;;;;;;;;;;5057147;28;21030;-81
2023/10/06 08:37:12;;;;;;;17.50;8.10;;;;;;;;;;5056906;28;20993;-81
2023/10/06 08:39:44;;;;;;;9.43;6.47;;;;;;;;;;5056201;28;20825;-81
2023/10/06 08:42:11;;;;;;;9.20;6.53;;;;;;;;;;5056957;28;20471;-84
2023/10/06 08:44:38;;;;;;;14.03;7.20;;;;;;;;;;5056773;28;20443;-82
2023/10/06 08:47:07;;;;;;;12.70;6.10;;;;;;;;;;5055200;28;20905;-83
2023/10/06 08:49:34;;;;;;;14.20;6.37;;;;;;;;;;5056849;28;20494;-82
2023/10/06 08:52:01;;;;;;;17.17;7.80;;;;;;;;;;5055101;28;20463;-82
2023/10/06 08:54:29;;;;;;;14.93;6.80;;;;;;;;;;5056764;28;20456;-82
2023/10/06 08:56:56;;;;;;;14.23;6.70;;;;;;;;;;5056365;28;20829;-82
2023/10/06 08:59:22;;;;;;;12.73;7.17;;;;;;;;;;5056598;28;20447;-82
2023/10/06 09:01:49;;;;;;;13.00;6.70;;;;;;;;;;5038997;28;20443;-82
2023/10/06 09:04:15;;;;;;;14.90;7.90;;;;;;;;;;5057093;28;20550;-82
2023/10/06 09:06:56;;;;;;;13.70;7.80;;;;;;;;;;5056555;28;20410;-82
2023/10/06 09:09:27;;;;;;;15.33;6.60;;;;;;;;;;5056449;28;20446;-82
2023/10/06 09:11:53;;;;;;;10.83;6.30;;;;;;;;;;5055509;28;20427;-83
2023/10/06 09:14:20;;;;;;;14.90;7.30;;;;;;;;;;5056496;28;20825;-84
2023/10/06 09:16:49;;;;;;;11.93;6.50;;;;;;;;;;5055649;28;20479;-83
2023/10/06 09:19:16;;;;;;;12.50;7.23;;;;;;;;;;5055069;28;20477;-84
2023/10/06 09:22:00;;;;;;;9.60;7.20;;;;;;;;;;5055818;28;20482;-83
2023/10/06 09:24:29;;;;;;;15.50;7.77;;;;;;;;;;5038971;28;21034;-83
2023/10/06 09:26:57;;;;;;;11.43;7.90;;;;;;;;;;5056454;28;20448;-84
2023/10/06 09:29:31;;;;;;;10.73;7.80;;;;;;;;;;5055733;28;20439;-83
2023/10/06 09:31:58;;;;;;;10.67;7.20;;;;;;;;;;5039003;28;20440;-83
2023/10/06 09:34:25;;;;;;;12.80;7.47;;;;;;;;;;5055413;28;20488;-83
2023/10/06 09:36:53;;;;;;;13.73;8.37;;;;;;;;;;5056016;28;20448;-83
2023/10/06 09:39:26;;;;;;;16.37;9.47;;;;;;;;;;5056744;28;20444;-85
2023/10/06 09:41:54;;;;;;;13.63;9.07;;;;;;;;;;5056119;28;20464;-84
2023/10/06 09:44:22;;;;;;;20.37;8.70;;;;;;;;;;5056520;28;20965;-83
2023/10/06 09:46:52;;;;;;;26.00;8.93;;;;;;;;;;5054506;28;20459;-84
2023/10/06 09:49:19;;;;;;;14.27;8.93;;;;;;;;;;5057016;28;20444;-84
2023/10/06 09:51:46;;;;;;;17.07;9.70;;;;;;;;;;5055749;28;20444;-84
2023/10/06 09:54:13;;;;;;;18.83;8.93;;;;;;;;;;5057467;28;20482;-83
2023/10/06 09:56:40;;;;;;;18.83;9.43;;;;;;;;;;5057470;28;20440;-86
2023/10/06 09:59:12;;;;;;;17.03;8.63;;;;;;;;;;5057383;28;20463;-84
2023/10/06 10:01:42;;;;;;;15.03;8.90;;;;;;;;;;5058016;28;20466;-83
2023/10/06 10:04:11;;;;;;;11.37;8.37;;;;;;;;;;5056137;28;20442;-84
2023/10/06 10:06:38;;;;;;;17.07;10.60;;;;;;;;;;5057644;28;20426;-84
2023/10/06 10:09:07;;;;;;;12.63;9.03;;;;;;;;;;5056904;28;20825;-86
2023/10/06 10:11:39;;;;;;;17.10;9.93;;;;;;;;;;5059413;28;20450;-84
2023/10/06 10:14:39;;;;;;;17.87;9.40;;;;;;;;;;5058698;28;20458;-82
2023/10/06 10:17:13;;;;;;;15.93;9.57;;;;;;;;;;5053889;28;20469;-83
2023/10/06 10:19:43;;;;;;;14.50;10.40;;;;;;;;;;5057883;28;20475;-85
2023/10/06 10:22:13;;;;;;;13.13;9.40;;;;;;;;;;5056998;28;20468;-82
2023/10/06 10:24:40;;;;;;;16.90;12.37;;;;;;;;;;5058039;28;20448;-85
2023/10/06 10:27:12;;;;;;;14.40;8.83;;;;;;;;;;5056700;28;20465;-82
2023/10/06 10:29:40;;;;;;;13.43;9.67;;;;;;;;;;5055781;28;20825;-82
2023/10/06 10:32:15;;;;;;;16.93;11.27;;;;;;;;;;5056113;28;20906;-86
2023/10/06 10:34:56;;;;;;;14.83;9.00;;;;;;;;;;5057520;28;20486;-84
2023/10/06 10:37:23;;;;;;;14.50;9.67;;;;;;;;;;5046962;28;20475;-84
2023/10/06 10:39:50;;;;;;;10.80;9.60;;;;;;;;;;5055600;28;20422;-85
2023/10/06 10:42:18;;;;;;;13.50;9.60;;;;;;;;;;5055001;28;20470;-83
2023/10/06 10:44:45;;;;;;;11.63;9.37;;;;;;;;;;5055645;28;20985;-84
2023/10/06 10:47:11;;;;;;;16.27;9.23;;;;;;;;;;5054982;28;20442;-84
2023/10/06 10:49:40;;;;;;;15.93;10.03;;;;;;;;;;5055518;28;20431;-84
2023/10/06 10:52:07;;;;;;;15.23;9.50;;;;;;;;;;5054929;28;20446;-83
2023/10/06 10:54:33;;;;;;;12.20;9.30;;;;;;;;;;5054481;28;20468;-84
2023/10/06 10:57:05;;;;;;;16.47;9.37;;;;;;;;;;5054262;28;20514;-83
2023/10/06 10:59:49;;;;;;;17.83;9.33;;;;;;;;;;5055958;28;20436;-83
2023/10/06 11:02:16;;;;;;;13.73;7.80;;;;;;;;;;5052754;28;21003;-82
2023/10/06 11:04:45;;;;;;;17.60;9.03;;;;;;;;;;5053691;28;20490;-84
2023/10/06 11:07:15;;;;;;;9.90;8.57;;;;;;;;;;5053523;28;20472;-84
2023/10/06 11:09:47;;;;;;;11.90;8.13;;;;;;;;;;5055603;28;20509;-84
2023/10/06 11:12:20;;;;;;;10.07;7.50;;;;;;;;;;5054888;28;20467;-83
2023/10/06 11:14:49;;;;;;;12.07;8.00;;;;;;;;;;5054773;28;20465;-83
2023/10/06 11:17:20;;;;;;;10.47;7.80;;;;;;;;;;5054740;28;20478;-83
2023/10/06 11:19:59;;;;;;;14.93;7.77;;;;;;;;;;5054060;28;20515;-82
2023/10/06 11:22:28;;;;;;;14.40;7.00;;;;;;;;;;5053747;28;20555;-83
2023/10/06 11:24:57;;;;;;;13.50;7.50;;;;;;;;;;5055205;28;21053;-82
2023/10/06 11:27:24;;;;;;;13.87;7.43;;;;;;;;;;5054829;28;20498;-82
2023/10/06 11:29:51;;;;;;;12.33;7.30;;;;;;;;;;5055158;28;20817;-83
2023/10/06 11:32:18;;;;;;;10.30;6.50;;;;;;;;;;5054617;28;20473;-84
2023/10/06 11:34:45;;;;;;;13.80;7.73;;;;;;;;;;5054933;28;20483;-83
2023/10/06 11:37:14;;;;;;;10.07;7.13;;;;;;;;;;5054206;28;20466;-83
2023/10/06 11:39:40;;;;;;;11.27;5.60;;;;;;;;;;5054739;28;20469;-82
2023/10/06 11:42:25;;;;;;;7.70;5.27;;;;;;;;;;5054099;28;20828;-83
2023/10/06 11:44:52;;;;;;;7.93;6.07;;;;;;;;;;5054412;28;20985;-82
2023/10/06 11:47:21;;;;;;;10.33;6.10;;;;;;;;;;5054592;28;21064;-83
2023/10/06 11:49:54;;;;;;;14.43;5.87;;;;;;;;;;5053793;28;20505;-82
2023/10/06 11:52:22;;;;;;;16.63;5.80;;;;;;;;;;5054339;28;20547;-81
2023/10/06 11:54:48;;;;;;;7.57;5.70;;;;;;;;;;5054963;28;20486;-82
2023/10/06 11:57:15;;;;;;;9.33;5.30;;;;;;;;;;5052714;28;20471;-81
2023/10/06 11:59:48;;;;;;;15.73;6.30;;;;;;;;;;5054385;28;20440;-82
2023/10/06 12:02:15;;;;;;;12.73;5.63;;;;;;;;;;5055371;28;20459;-83
2023/10/06 12:04:42;;;;;;;7.67;5.40;;;;;;;;;;5058032;28;20463;-86
2023/10/06 12:07:20;;;;;;;13.17;6.23;;;;;;;;;;5057577;28;20474;-84
2023/10/06 12:09:48;;;;;;;11.43;5.83;;;;;;;;;;5058585;28;20444;-81
2023/10/06 12:12:16;;;;;;;12.43;6.07;;;;;;;;;;5058549;28;20489;-84
2023/10/06 12:14:43;;;;;;;8.17;5.70;;;;;;;;;;5057528;28;20464;-83
2023/10/06 12:17:11;;;;;;;10.57;5.50;;;;;;;;;;5057661;28;20487;-82
2023/10/06 12:19:38;;;;;;;6.27;4.53;;;;;;;;;;5057955;28;20526;-82
2023/10/06 12:22:04;;;;;;;13.67;5.67;;;;;;;;;;5057469;28;20475;-82
2023/10/06 12:24:31;;;;;;;11.37;5.70;;;;;;;;;;5058123;28;20483;-84
2023/10/06 12:26:59;;;;;;;12.73;6.20;;;;;;;;;;5055862;28;20534;-83
2023/10/06 12:29:28;;;;;;;18.73;6.43;;;;;;;;;;5056897;28;20933;-81
2023/10/06 12:31:56;;;;;;;11.50;5.77;;;;;;;;;;5056742;28;20439;-82
2023/10/06 12:34:22;;;;;;;10.37;5.20;;;;;;;;;;5057980;28;20904;-82
2023/10/06 12:36:51;;;;;;;8.63;5.60;;;;;;;;;;5057453;28;20786;-82
2023/10/06 12:39:30;;;;;;;11.90;6.60;;;;;;;;;;5057289;28;20451;-81
2023/10/06 12:41:59;;;;;;;10.80;4.93;;;;;;;;;;5056100;28;20483;-82
2023/10/06 12:44:28;;;;;;;12.07;5.30;;;;;;;;;;5057562;28;20470;-82
2023/10/06 12:46:55;;;;;;;11.80;5.23;;;;;;;;;;5055713;28;20440;-82
2023/10/06 12:49:23;;;;;;;8.07;4.53;;;;;;;;;;5056881;28;20436;-83
2023/10/06 12:51:48;;;;;;;11.70;6.00;;;;;;;;;;5056853;28;20470;-82
2023/10/06 12:54:15;;;;;;;12.03;5.50;;;;;;;;;;5057416;28;20455;-82
2023/10/06 12:56:44;;;;;;;7.17;4.70;;;;;;;;;;5057309;28;20683;-84
2023/10/06 12:59:11;;;;;;;8.90;4.43;;;;;;;;;;5056694;28;20448;-83
2023/10/06 13:01:39;;;;;;;10.50;5.13;;;;;;;;;;5058145;28;20447;-83
2023/10/06 13:04:05;;;;;;;11.70;5.90;;;;;;;;;;5057751;28;21059;-82
2023/10/06 13:06:32;;;;;;;6.50;4.43;;;;;;;;;;5056729;28;20440;-82
2023/10/06 13:09:01;;;;;;;13.70;5.47;;;;;;;;;;5059137;28;20833;-82
2023/10/06 13:11:28;;;;;;;8.30;4.77;;;;;;;;;;5058361;28;20517;-83
2023/10/06 13:13:54;;;;;;;5.97;5.07;;;;;;;;;;5056701;28;21059;-87
2023/10/06 13:16:21;;;;;;;11.10;4.60;;;;;;;;;;5058070;28;20448;-84
2023/10/06 13:18:49;;;;;;;10.83;5.47;;;;;;;;;;5056064;28;20467;-84
2023/10/06 13:21:16;;;;;;;9.97;4.03;;;;;;;;;;5057469;28;20444;-83
2023/10/06 13:23:43;;;;;;;9.60;4.90;;;;;;;;;;5056956;28;20498;-82
2023/10/06 13:26:11;;;;;;;12.30;4.67;;;;;;;;;;5058481;28;20466;-83
2023/10/06 13:28:40;;;;;;;9.00;5.23;;;;;;;;;;5056706;28;20464;-83
2023/10/06 13:31:09;;;;;;;6.83;4.50;;;;;;;;;;5057580;28;20436;-82
2023/10/06 13:33:36;;;;;;;11.83;5.30;;;;;;;;;;5056628;28;20534;-81
2023/10/06 13:36:05;;;;;;;9.23;4.90;;;;;;;;;;5057261;28;20444;-82
2023/10/06 13:38:34;;;;;;;6.60;4.37;;;;;;;;;;5053917;28;20525;-83
2023/10/06 13:41:00;;;;;;;10.10;4.43;;;;;;;;;;5056231;28;20452;-82
2023/10/06 13:43:27;;;;;;;9.47;3.90;;;;;;;;;;5056505;28;20483;-84
2023/10/06 13:45:57;;;;;;;11.13;4.53;;;;;;;;;;5055462;28;20490;-85
2023/10/06 13:48:26;;;;;;;12.77;4.87;;;;;;;;;;5054259;28;20969;-82
2023/10/06 13:50:53;;;;;;;5.60;4.60;;;;;;;;;;5056605;28;20942;-83
2023/10/06 13:53:21;;;;;;;11.33;5.13;;;;;;;;;;5053154;28;20993;-83
2023/10/06 13:55:49;;;;;;;13.53;5.00;;;;;;;;;;5056478;28;20445;-83
2023/10/06 13:58:16;;;;;;;7.20;4.30;;;;;;;;;;5055174;28;20526;-83
2023/10/06 14:00:42;;;;;;;5.97;4.43;;;;;;;;;;5056278;28;20432;-84
2023/10/06 14:03:11;;;;;;;8.67;4.23;;;;;;;;;;5055550;28;20541;-82
2023/10/06 14:05:41;;;;;;;7.60;5.27;;;;;;;;;;5056484;28;20482;-83
2023/10/06 14:08:08;;;;;;;7.10;4.90;;;;;;;;;;5055590;28;20892;-82
2023/10/06 14:10:37;;;;;;;9.17;5.50;;;;;;;;;;5055028;28;20785;-82
2023/10/06 14:13:08;;;;;;;9.27;4.63;;;;;;;;;;5055123;28;20468;-81
2023/10/06 14:15:41;;;;;;;14.13;5.17;;;;;;;;;;5054402;28;20530;-81
2023/10/06 14:18:10;;;;;;;13.63;6.07;;;;;;;;;;5054366;28;20518;-82
2023/10/06 14:20:36;;;;;;;7.23;4.93;;;;;;;;;;5056574;28;20539;-84
2023/10/06 14:23:03;;;;;;;12.67;4.90;;;;;;;;;;5055688;28;20495;-82
2023/10/06 14:25:33;;;;;;;10.50;4.87;;;;;;;;;;5056297;28;20884;-81
2023/10/06 14:28:00;;;;;;;12.57;5.00;;;;;;;;;;5057276;28;20495;-85
2023/10/06 14:30:28;;;;;;;7.50;4.73;;;;;;;;;;5055113;28;20525;-82
2023/10/06 14:35:45;;;;;;;14.20;5.20;;;;;;;;;;5048278;28;20924;-82
2023/10/06 14:46:27;;;;;;;12.50;5.60;;;;;;;;;;5055044;28;20408;-82
2023/10/06 14:48:54;;;;;;;10.57;6.10;;;;;;;;;;5055025;28;20472;-83
2023/10/06 14:51:21;;;;;;;9.40;5.13;;;;;;;;;;5053749;28;20440;-81